createdAt,value
2018-01-29T00:01:57.044Z,3.30
2018-01-29T00:04:44.472Z,2.07
2018-01-29T00:07:31.832Z,3.07
2018-01-29T00:26:41.188Z,2.40
2018-01-29T00:29:28.411Z,2.73
2018-01-29T00:32:15.652Z,3.07
2018-01-29T00:35:02.936Z,2.70
2018-01-29T00:37:50.240Z,2.93
2018-01-29T00:40:37.366Z,2.50
2018-01-29T00:43:25.542Z,2.30
2018-01-29T00:46:12.747Z,2.47
2018-01-29T00:49:00.076Z,2.43
2018-01-29T00:51:47.381Z,2.10
2018-01-29T00:54:34.706Z,2.40
2018-01-29T00:57:22.025Z,2.90
2018-01-29T01:00:09.377Z,2.30
2018-01-29T01:02:56.572Z,2.37
2018-01-29T01:05:43.827Z,2.23
2018-01-29T01:08:31.130Z,2.57
2018-01-29T01:11:18.594Z,2.53
2018-01-29T01:14:06.744Z,2.20
2018-01-29T01:16:54.872Z,2.30
2018-01-29T01:19:42.154Z,2.43
2018-01-29T01:22:29.459Z,2.10
2018-01-29T01:25:17.529Z,2.30
2018-01-29T01:28:04.932Z,2.40
2018-01-29T01:30:52.403Z,2.77
2018-01-29T01:33:39.656Z,2.20
2018-01-29T01:36:27.506Z,2.55
2018-01-29T01:55:35.935Z,2.60
2018-01-29T01:58:23.113Z,2.60
2018-01-29T02:01:10.496Z,2.30
2018-01-29T02:03:58.364Z,2.17
2018-01-29T02:06:45.659Z,2.30
2018-01-29T02:09:32.841Z,1.97
2018-01-29T02:12:20.217Z,2.10
2018-01-29T02:15:07.572Z,2.40
2018-01-29T02:17:54.813Z,2.33
2018-01-29T02:20:42.291Z,1.80
2018-01-29T02:23:29.670Z,2.37
2018-01-29T02:26:16.757Z,1.93
2018-01-29T02:29:04.434Z,2.50
2018-01-29T02:31:51.645Z,2.60
2018-01-29T02:34:38.981Z,2.20
2018-01-29T02:37:26.275Z,2.10
2018-01-29T02:40:13.576Z,2.20
2018-01-29T02:43:00.739Z,2.13
2018-01-29T02:45:48.275Z,2.27
2018-01-29T02:48:36.591Z,2.00
2018-01-29T02:51:24.503Z,2.30
2018-01-29T02:54:11.866Z,2.13
2018-01-29T03:13:20.479Z,3.00
2018-01-29T03:16:07.854Z,1.97
2018-01-29T03:18:55.077Z,2.70
2018-01-29T03:21:42.397Z,2.90
2018-01-29T03:24:30.019Z,2.50
2018-01-29T03:27:17.162Z,2.77
2018-01-29T03:30:04.587Z,2.23
2018-01-29T03:32:52.030Z,2.63
2018-01-29T03:35:40.384Z,2.00
2018-01-29T03:38:28.437Z,2.70
2018-01-29T03:41:16.051Z,2.73
2018-01-29T03:44:03.320Z,2.30
2018-01-29T03:46:50.946Z,3.05
2018-01-29T03:49:38.242Z,2.47
2018-01-29T03:52:26.244Z,2.70
2018-01-29T03:55:13.465Z,2.50
2018-01-29T03:58:00.736Z,2.83
2018-01-29T04:00:48.653Z,2.50
2018-01-29T04:03:35.967Z,2.47
2018-01-29T04:06:23.277Z,2.90
2018-01-29T04:09:10.495Z,2.47
2018-01-29T04:11:57.852Z,3.37
2018-01-29T04:14:45.195Z,3.00
2018-01-29T04:17:33.383Z,2.87
2018-01-29T04:20:21.952Z,2.70
2018-01-29T04:23:09.155Z,2.90
2018-01-29T04:25:56.526Z,2.70
2018-01-29T04:28:43.880Z,2.60
2018-01-29T04:31:32.051Z,2.73
2018-01-29T04:34:19.378Z,2.50
2018-01-29T04:37:06.687Z,2.93
2018-01-29T05:02:44.199Z,3.27
2018-01-29T05:05:31.823Z,2.90
2018-01-29T05:24:44.900Z,2.57
2018-01-29T05:27:33.041Z,3.17
2018-01-29T05:30:20.262Z,3.17
2018-01-29T05:33:07.705Z,2.50
2018-01-29T05:35:55.094Z,3.07
2018-01-29T05:38:42.313Z,3.00
2018-01-29T05:41:29.534Z,2.50
2018-01-29T05:44:16.677Z,2.83
2018-01-29T05:47:04.595Z,2.90
2018-01-29T05:49:51.712Z,2.97
2018-01-29T05:52:38.946Z,2.73
2018-01-29T05:55:26.416Z,2.80
2018-01-29T05:58:14.353Z,2.90
2018-01-29T06:01:02.292Z,2.70
2018-01-29T06:03:50.364Z,2.93
2018-01-29T06:06:37.470Z,2.80
2018-01-29T06:09:24.648Z,3.20
2018-01-29T06:12:12.086Z,3.08
2018-01-29T06:14:59.553Z,3.17
2018-01-29T06:17:47.565Z,2.83
2018-01-29T06:20:35.808Z,2.33
2018-01-29T06:23:22.918Z,2.80
2018-01-29T06:26:10.209Z,3.13
2018-01-29T06:28:57.323Z,2.70
2018-01-29T06:31:44.572Z,2.90
2018-01-29T06:34:32.440Z,2.40
2018-01-29T06:37:19.581Z,2.90
2018-01-29T06:40:06.820Z,2.60
2018-01-29T06:42:55.215Z,2.70
2018-01-29T06:45:42.678Z,2.67
2018-01-29T06:48:30.013Z,2.50
2018-01-29T06:51:17.314Z,2.67
2018-01-29T06:54:04.414Z,2.53
2018-01-29T06:56:51.723Z,2.90
2018-01-29T07:15:59.236Z,2.80
2018-01-29T07:18:46.478Z,2.90
2018-01-29T07:21:33.648Z,3.07
2018-01-29T07:24:20.844Z,3.00
2018-01-29T07:27:08.951Z,2.70
2018-01-29T07:29:56.163Z,3.00
2018-01-29T07:32:43.501Z,2.30
2018-01-29T07:35:30.881Z,2.40
2018-01-29T07:38:18.024Z,3.07
2018-01-29T07:41:05.272Z,2.90
2018-01-29T07:43:52.472Z,2.77
2018-01-29T07:46:39.731Z,2.87
2018-01-29T07:49:27.057Z,2.90
2018-01-29T07:52:14.446Z,2.87
2018-01-29T07:55:01.960Z,2.80
2018-01-29T07:57:49.175Z,2.87
2018-01-29T08:00:36.701Z,2.67
2018-01-29T08:03:24.831Z,3.00
2018-01-29T08:06:12.030Z,2.90
2018-01-29T08:08:59.183Z,2.53
2018-01-29T08:11:46.565Z,3.30
2018-01-29T08:14:33.782Z,2.50
2018-01-29T08:17:20.933Z,2.60
2018-01-29T08:20:08.087Z,2.93
2018-01-29T08:22:55.466Z,2.90
2018-01-29T08:25:42.638Z,2.60
2018-01-29T08:28:29.831Z,2.40
2018-01-29T08:31:17.128Z,2.70
2018-01-29T08:34:04.760Z,3.20
2018-01-29T08:36:52.272Z,3.03
2018-01-29T08:39:39.630Z,2.70
2018-01-29T08:42:27.779Z,2.70
2018-01-29T08:45:16.507Z,2.63
2018-01-29T08:48:03.668Z,2.53
2018-01-29T08:50:51.693Z,3.20
2018-01-29T08:53:38.942Z,3.00
2018-01-29T08:56:27.186Z,2.93
2018-01-29T08:59:14.771Z,2.67
2018-01-29T09:02:02.773Z,2.50
2018-01-29T09:04:50.108Z,2.90
2018-01-29T09:07:37.380Z,3.00
2018-01-29T09:10:24.595Z,3.23
2018-01-29T09:13:11.840Z,2.90
2018-01-29T09:15:59.951Z,2.87
2018-01-29T09:18:47.250Z,2.93
2018-01-29T09:21:34.349Z,2.63
2018-01-29T09:24:21.644Z,3.07
2018-01-29T09:27:08.783Z,2.80
2018-01-29T09:29:56.855Z,2.70
2018-01-29T09:32:44.070Z,3.30
2018-01-29T09:35:31.192Z,2.67
2018-01-29T09:38:18.555Z,3.30
2018-01-29T09:41:05.793Z,3.23
2018-01-29T09:43:52.912Z,3.17
2018-01-29T09:46:40.225Z,2.80
2018-01-29T09:49:27.778Z,3.20
2018-01-29T09:52:15.085Z,2.70
2018-01-29T09:55:02.189Z,2.83
2018-01-29T09:57:49.469Z,2.87
2018-01-29T10:00:36.784Z,3.00
2018-01-29T10:19:44.200Z,2.90
2018-01-29T10:22:31.517Z,2.47
2018-01-29T10:41:39.494Z,2.60
2018-01-29T10:44:26.698Z,2.60
2018-01-29T10:47:13.994Z,3.27
2018-01-29T10:50:01.216Z,3.70
2018-01-29T10:52:49.650Z,3.10
2018-01-29T10:55:36.893Z,2.80
2018-01-29T10:58:24.237Z,3.30
2018-01-29T11:01:13.458Z,3.50
2018-01-29T11:04:01.629Z,3.40
2018-01-29T11:06:49.520Z,3.20
2018-01-29T11:09:36.843Z,3.00
2018-01-29T11:12:24.167Z,3.07
2018-01-29T11:15:11.593Z,3.30
2018-01-29T11:17:59.529Z,3.60
2018-01-29T11:20:46.940Z,3.50
2018-01-29T11:23:34.294Z,3.50
2018-01-29T11:26:21.655Z,3.53
2018-01-29T11:51:59.210Z,3.53
2018-01-29T11:54:47.739Z,4.03
2018-01-29T12:14:01.857Z,13.00
2018-01-29T12:16:49.923Z,9.37
2018-01-29T12:19:37.145Z,8.43
2018-01-29T12:22:25.121Z,6.67
2018-01-29T12:25:13.546Z,5.20
2018-01-29T12:28:00.797Z,5.20
2018-01-29T12:30:48.217Z,5.40
2018-01-29T12:33:35.522Z,6.17
2018-01-29T12:39:22.265Z,5.12
2018-01-29T13:05:00.201Z,6.70
2018-01-29T13:07:47.621Z,5.00
2018-01-29T13:10:35.049Z,7.00
2018-01-29T13:13:22.391Z,6.63
2018-01-29T13:16:09.944Z,6.30
2018-01-29T13:18:57.899Z,7.10
2018-01-29T13:21:45.831Z,7.70
2018-01-29T13:24:33.742Z,6.10
2018-01-29T13:27:21.164Z,6.53
2018-01-29T13:30:08.386Z,6.63
2018-01-29T13:32:55.593Z,7.20
2018-01-29T13:35:42.934Z,10.40
2018-01-29T13:38:30.196Z,21.07
2018-01-29T13:41:18.058Z,12.03
2018-01-29T13:44:05.335Z,9.93
2018-01-29T13:46:52.665Z,10.30
2018-01-29T13:49:39.947Z,9.60
2018-01-29T13:52:27.241Z,10.37
2018-01-29T13:55:14.699Z,10.00
2018-01-29T13:58:02.640Z,10.95
2018-01-29T14:17:11.093Z,8.43
2018-01-29T14:19:58.375Z,9.30
2018-01-29T14:22:45.697Z,7.93
2018-01-29T14:25:32.973Z,10.80
2018-01-29T14:28:20.185Z,9.93
2018-01-29T14:31:07.933Z,8.83
2018-01-29T14:33:55.166Z,9.50
2018-01-29T14:36:42.360Z,11.03
2018-01-29T14:39:29.921Z,9.30
2018-01-29T14:42:17.070Z,9.30
2018-01-29T14:45:05.111Z,9.73
2018-01-29T14:47:53.008Z,10.80
2018-01-29T14:50:40.323Z,10.10
2018-01-29T14:53:29.067Z,10.70
2018-01-29T14:56:16.343Z,8.90
2018-01-29T14:59:03.576Z,9.27
2018-01-29T15:01:51.594Z,10.17
2018-01-29T15:04:38.983Z,10.57
2018-01-29T15:07:26.245Z,11.00
2018-01-29T15:10:13.520Z,10.47
2018-01-29T15:13:00.803Z,10.20
2018-01-29T15:15:47.982Z,9.43
2018-01-29T15:18:35.442Z,11.30
2018-01-29T15:21:22.640Z,11.20
2018-01-29T15:24:09.871Z,11.30
2018-01-29T15:26:56.937Z,9.87
2018-01-29T15:29:44.163Z,11.00
2018-01-29T15:32:32.098Z,10.20
2018-01-29T15:35:19.388Z,10.83
2018-01-29T15:38:06.615Z,10.90
2018-01-29T15:40:53.938Z,10.43
2018-01-29T15:43:41.349Z,10.80
2018-01-29T15:46:29.505Z,11.00
2018-01-29T15:49:16.861Z,11.43
2018-01-29T15:52:04.999Z,11.17
2018-01-29T15:54:52.128Z,11.80
2018-01-29T15:57:40.057Z,11.60
2018-01-29T16:00:28.074Z,10.20
2018-01-29T16:03:15.356Z,8.80
2018-01-29T16:06:02.489Z,7.17
2018-01-29T16:08:49.709Z,6.87
2018-01-29T16:11:36.924Z,7.93
2018-01-29T16:14:25.272Z,8.30
2018-01-29T16:17:12.516Z,9.00
2018-01-29T16:20:07.919Z,9.20
2018-01-29T16:22:55.117Z,10.00
2018-01-29T16:25:42.293Z,9.70
2018-01-29T16:28:29.592Z,6.70
2018-01-29T16:31:16.759Z,7.17
2018-01-29T16:34:03.919Z,6.23
2018-01-29T16:36:51.305Z,5.67
2018-01-29T16:39:38.573Z,6.63
2018-01-29T16:42:25.807Z,6.20
2018-01-29T16:45:13.019Z,5.53
2018-01-29T16:48:00.184Z,7.23
2018-01-29T16:50:47.366Z,6.17
2018-01-29T16:53:34.527Z,6.57
2018-01-29T16:56:21.646Z,6.20
2018-01-29T16:59:08.890Z,5.90
2018-01-29T17:01:56.629Z,5.83
2018-01-29T17:04:44.574Z,6.37
2018-01-29T17:07:32.630Z,6.83
2018-01-29T17:10:20.291Z,6.53
2018-01-29T17:13:07.589Z,6.30
2018-01-29T17:15:54.850Z,6.13
2018-01-29T17:18:42.117Z,5.90
2018-01-29T17:21:30.548Z,6.90
2018-01-29T17:24:17.816Z,5.53
2018-01-29T17:27:05.067Z,6.27
2018-01-29T17:29:52.331Z,5.13
2018-01-29T17:32:39.468Z,6.63
2018-01-29T17:35:27.496Z,5.47
2018-01-29T17:38:14.794Z,4.50
2018-01-29T17:41:02.228Z,9.40
2018-01-29T17:43:49.514Z,7.50
2018-01-29T17:46:36.690Z,4.60
2018-01-29T17:49:24.034Z,6.57
2018-01-29T17:52:12.019Z,5.30
2018-01-29T17:54:59.304Z,5.27
2018-01-29T17:57:47.297Z,5.00
2018-01-29T18:00:34.776Z,4.87
2018-01-29T18:03:21.944Z,4.63
2018-01-29T18:06:09.147Z,3.97
2018-01-29T18:08:56.398Z,4.03
2018-01-29T18:11:43.579Z,4.30
2018-01-29T18:14:30.865Z,5.00
2018-01-29T18:17:18.818Z,5.27
2018-01-29T18:20:06.859Z,3.60
2018-01-29T18:22:55.035Z,4.40
2018-01-29T18:25:42.167Z,4.07
2018-01-29T18:28:29.401Z,4.57
2018-01-29T18:31:16.673Z,4.13
2018-01-29T18:34:04.797Z,4.27
2018-01-29T18:36:51.896Z,4.63
2018-01-29T18:39:39.254Z,5.40
2018-01-29T18:42:27.141Z,5.07
2018-01-29T18:45:14.398Z,6.00
2018-01-29T18:48:01.776Z,4.23
2018-01-29T18:50:49.164Z,4.73
2018-01-29T18:53:36.368Z,4.50
2018-01-29T18:56:23.788Z,4.43
2018-01-29T18:59:11.117Z,4.83
2018-01-29T19:01:58.616Z,4.20
2018-01-29T19:04:45.739Z,5.07
2018-01-29T19:07:33.041Z,3.80
2018-01-29T19:10:20.438Z,4.80
2018-01-29T19:13:07.671Z,4.90
2018-01-29T19:15:55.822Z,5.53
2018-01-29T19:18:43.952Z,5.30
2018-01-29T19:21:31.189Z,4.97
2018-01-29T19:24:18.650Z,5.13
2018-01-29T19:27:05.893Z,5.10
2018-01-29T19:29:53.095Z,5.07
2018-01-29T19:32:40.287Z,4.90
2018-01-29T19:35:27.539Z,5.40
2018-01-29T19:38:14.848Z,4.97
2018-01-29T19:41:02.354Z,4.93
2018-01-29T19:43:49.684Z,5.57
2018-01-29T19:46:37.047Z,5.87
2018-01-29T19:49:25.194Z,5.20
2018-01-29T19:52:12.388Z,5.50
2018-01-29T19:54:59.708Z,5.53
2018-01-29T19:57:47.017Z,4.80
2018-01-29T20:00:34.161Z,5.00
2018-01-29T20:03:21.551Z,5.83
2018-01-29T20:06:09.618Z,5.77
2018-01-29T20:08:56.825Z,4.53
2018-01-29T20:11:43.951Z,5.97
2018-01-29T20:14:31.315Z,5.40
2018-01-29T20:17:18.443Z,5.53
2018-01-29T20:20:05.800Z,6.37
2018-01-29T20:22:53.091Z,5.30
2018-01-29T20:25:40.602Z,5.03
2018-01-29T20:28:28.255Z,5.40
2018-01-29T20:31:15.578Z,5.83
2018-01-29T20:34:02.903Z,6.00
2018-01-29T20:36:50.133Z,5.40
2018-01-29T20:39:37.559Z,5.60
2018-01-29T20:42:24.881Z,5.33
2018-01-29T20:45:12.133Z,6.03
2018-01-29T20:47:59.447Z,5.97
2018-01-29T20:50:46.659Z,7.73
2018-01-29T20:53:34.045Z,5.70
2018-01-29T20:56:21.285Z,5.37
2018-01-29T20:59:08.433Z,5.57
2018-01-29T21:01:55.712Z,5.40
2018-01-29T21:04:44.292Z,6.77
2018-01-29T21:07:31.768Z,5.67
2018-01-29T21:10:18.996Z,6.00
2018-01-29T21:13:07.226Z,5.33
2018-01-29T21:38:40.195Z,5.17
2018-01-29T21:41:27.425Z,5.67
2018-01-29T21:44:14.695Z,4.80
2018-01-29T21:47:01.993Z,5.00
2018-01-29T21:49:49.961Z,5.37
2018-01-29T21:52:37.198Z,4.33
2018-01-29T21:55:24.538Z,4.50
2018-01-29T21:58:11.888Z,5.07
2018-01-29T22:00:59.882Z,4.80
2018-01-29T22:03:47.166Z,6.07
2018-01-29T22:06:35.312Z,5.10
2018-01-29T22:09:23.376Z,8.00
2018-01-29T22:12:10.824Z,3.67
2018-01-29T22:14:58.062Z,4.80
2018-01-29T22:17:45.353Z,4.00
2018-01-29T22:20:32.808Z,4.43
2018-01-29T22:23:20.017Z,3.23
2018-01-29T22:26:07.401Z,4.00
2018-01-29T22:28:54.834Z,4.53
2018-01-29T22:31:42.789Z,3.77
2018-01-29T22:34:30.248Z,3.90
2018-01-29T22:37:17.418Z,4.33
2018-01-29T22:40:05.775Z,3.53
2018-01-29T22:42:52.982Z,3.80
2018-01-29T22:45:40.250Z,3.30
2018-01-29T22:48:27.683Z,4.23
2018-01-29T22:51:14.926Z,4.20
2018-01-29T22:54:02.147Z,4.23
2018-01-29T22:56:49.457Z,4.37
2018-01-29T22:59:36.792Z,4.03
2018-01-29T23:02:24.319Z,3.83
2018-01-29T23:05:11.613Z,3.27
2018-01-29T23:07:58.783Z,3.20
2018-01-29T23:10:46.062Z,3.70
2018-01-29T23:13:33.389Z,4.50
2018-01-29T23:16:20.767Z,4.77
2018-01-29T23:19:08.025Z,3.47
2018-01-29T23:21:55.364Z,3.43
2018-01-29T23:24:42.717Z,3.57
2018-01-29T23:27:29.968Z,3.80
2018-01-29T23:30:17.385Z,4.00
2018-01-29T23:33:05.383Z,3.50
2018-01-29T23:35:52.723Z,3.80
2018-01-29T23:38:39.990Z,3.83
2018-01-29T23:41:27.325Z,4.10
2018-01-29T23:44:14.604Z,3.27
2018-01-29T23:47:01.995Z,3.67
2018-01-29T23:49:49.888Z,4.60
2018-01-29T23:52:37.172Z,3.27
2018-01-29T23:55:24.425Z,3.33
2018-01-29T23:58:11.820Z,4.17
